sensor_id;sensor_type;location;lat;lon;timestamp;P1;durP1;ratioP1;P2;durP2;ratioP2
43809;SDS011;29440;48.208;11.162;2022-12-17T00:00:24;23.50;;;10.82;;
43809;SDS011;29440;48.208;11.162;2022-12-17T00:03:11;31.73;;;12.85;;
43809;SDS011;29440;48.208;11.162;2022-12-17T00:05:56;28.77;;;13.18;;
43809;SDS011;29440;48.208;11.162;2022-12-17T00:08:40;23.48;;;11.13;;
43809;SDS011;29440;48.208;11.162;2022-12-17T00:11:24;23.90;;;11.25;;
43809;SDS011;29440;48.208;11.162;2022-12-17T00:14:09;27.08;;;11.48;;
43809;SDS011;29440;48.208;11.162;2022-12-17T00:16:55;25.02;;;10.90;;
43809;SDS011;29440;48.208;11.162;2022-12-17T00:19:40;23.45;;;11.82;;
43809;SDS011;29440;48.208;11.162;2022-12-17T00:22:25;26.80;;;10.85;;
43809;SDS011;29440;48.208;11.162;2022-12-17T00:25:10;26.60;;;12.05;;
43809;SDS011;29440;48.208;11.162;2022-12-17T00:27:54;22.85;;;11.02;;
43809;SDS011;29440;48.208;11.162;2022-12-17T00:30:39;25.73;;;10.52;;
43809;SDS011;29440;48.208;11.162;2022-12-17T00:33:22;22.98;;;11.07;;
43809;SDS011;29440;48.208;11.162;2022-12-17T00:36:07;29.15;;;12.57;;
43809;SDS011;29440;48.208;11.162;2022-12-17T00:38:51;23.23;;;11.38;;
43809;SDS011;29440;48.208;11.162;2022-12-17T00:41:36;29.20;;;12.25;;
43809;SDS011;29440;48.208;11.162;2022-12-17T00:44:21;22.65;;;10.63;;
43809;SDS011;29440;48.208;11.162;2022-12-17T00:47:05;27.00;;;12.20;;
43809;SDS011;29440;48.208;11.162;2022-12-17T00:52:34;28.87;;;10.93;;
43809;SDS011;29440;48.208;11.162;2022-12-17T00:55:18;27.48;;;10.65;;
43809;SDS011;29440;48.208;11.162;2022-12-17T00:58:02;25.08;;;12.02;;
43809;SDS011;29440;48.208;11.162;2022-12-17T01:00:49;24.15;;;11.20;;
43809;SDS011;29440;48.208;11.162;2022-12-17T01:03:34;28.25;;;12.57;;
43809;SDS011;29440;48.208;11.162;2022-12-17T01:06:20;29.67;;;11.32;;
43809;SDS011;29440;48.208;11.162;2022-12-17T01:09:04;23.25;;;11.20;;
43809;SDS011;29440;48.208;11.162;2022-12-17T01:11:49;28.88;;;11.77;;
43809;SDS011;29440;48.208;11.162;2022-12-17T01:14:33;28.40;;;12.27;;
43809;SDS011;29440;48.208;11.162;2022-12-17T01:17:18;26.50;;;11.43;;
43809;SDS011;29440;48.208;11.162;2022-12-17T01:20:02;26.38;;;12.27;;
43809;SDS011;29440;48.208;11.162;2022-12-17T01:22:50;26.63;;;10.48;;
43809;SDS011;29440;48.208;11.162;2022-12-17T01:25:34;27.17;;;10.98;;
43809;SDS011;29440;48.208;11.162;2022-12-17T01:31:06;28.17;;;12.23;;
43809;SDS011;29440;48.208;11.162;2022-12-17T01:33:51;24.05;;;11.25;;
43809;SDS011;29440;48.208;11.162;2022-12-17T01:39:21;22.73;;;10.88;;
43809;SDS011;29440;48.208;11.162;2022-12-17T01:42:07;27.80;;;11.13;;
43809;SDS011;29440;48.208;11.162;2022-12-17T01:44:54;22.80;;;11.50;;
43809;SDS011;29440;48.208;11.162;2022-12-17T01:47:49;23.70;;;10.57;;
43809;SDS011;29440;48.208;11.162;2022-12-17T01:50:41;25.30;;;12.30;;
43809;SDS011;29440;48.208;11.162;2022-12-17T01:53:29;26.00;;;12.05;;
43809;SDS011;29440;48.208;11.162;2022-12-17T01:56:17;23.17;;;11.07;;
43809;SDS011;29440;48.208;11.162;2022-12-17T01:59:02;26.70;;;12.63;;
43809;SDS011;29440;48.208;11.162;2022-12-17T02:01:49;26.77;;;12.55;;
43809;SDS011;29440;48.208;11.162;2022-12-17T02:04:33;29.33;;;13.13;;
43809;SDS011;29440;48.208;11.162;2022-12-17T02:07:34;27.35;;;12.07;;
43809;SDS011;29440;48.208;11.162;2022-12-17T02:13:29;21.95;;;12.52;;
43809;SDS011;29440;48.208;11.162;2022-12-17T02:16:21;29.10;;;13.05;;
43809;SDS011;29440;48.208;11.162;2022-12-17T02:22:15;23.65;;;11.48;;
43809;SDS011;29440;48.208;11.162;2022-12-17T02:28:46;27.08;;;11.07;;
43809;SDS011;29440;48.208;11.162;2022-12-17T02:31:37;25.30;;;11.48;;
43809;SDS011;29440;48.208;11.162;2022-12-17T02:34:24;28.58;;;12.32;;
43809;SDS011;29440;48.208;11.162;2022-12-17T02:37:08;25.00;;;10.65;;
43809;SDS011;29440;48.208;11.162;2022-12-17T02:39:52;27.08;;;11.90;;
43809;SDS011;29440;48.208;11.162;2022-12-17T02:42:37;22.98;;;10.50;;
43809;SDS011;29440;48.208;11.162;2022-12-17T02:45:21;23.65;;;11.77;;
43809;SDS011;29440;48.208;11.162;2022-12-17T02:48:06;25.55;;;11.15;;
43809;SDS011;29440;48.208;11.162;2022-12-17T02:50:52;22.67;;;11.68;;
43809;SDS011;29440;48.208;11.162;2022-12-17T02:53:43;27.65;;;11.95;;
43809;SDS011;29440;48.208;11.162;2022-12-17T02:56:28;23.17;;;11.07;;
43809;SDS011;29440;48.208;11.162;2022-12-17T02:59:13;22.23;;;11.27;;
43809;SDS011;29440;48.208;11.162;2022-12-17T03:01:57;23.70;;;11.65;;
43809;SDS011;29440;48.208;11.162;2022-12-17T03:04:41;26.60;;;11.77;;
43809;SDS011;29440;48.208;11.162;2022-12-17T03:07:27;24.48;;;11.45;;
43809;SDS011;29440;48.208;11.162;2022-12-17T03:10:12;27.15;;;12.70;;
43809;SDS011;29440;48.208;11.162;2022-12-17T03:12:56;25.13;;;11.68;;
43809;SDS011;29440;48.208;11.162;2022-12-17T03:15:41;24.95;;;11.57;;
43809;SDS011;29440;48.208;11.162;2022-12-17T03:18:25;27.48;;;12.20;;
43809;SDS011;29440;48.208;11.162;2022-12-17T03:21:09;23.80;;;12.15;;
43809;SDS011;29440;48.208;11.162;2022-12-17T03:23:54;24.98;;;12.45;;
43809;SDS011;29440;48.208;11.162;2022-12-17T03:26:38;23.00;;;11.20;;
43809;SDS011;29440;48.208;11.162;2022-12-17T03:29:22;25.38;;;11.70;;
43809;SDS011;29440;48.208;11.162;2022-12-17T03:32:07;21.10;;;11.85;;
43809;SDS011;29440;48.208;11.162;2022-12-17T03:34:51;26.23;;;12.13;;
43809;SDS011;29440;48.208;11.162;2022-12-17T03:40:20;24.65;;;10.85;;
43809;SDS011;29440;48.208;11.162;2022-12-17T03:43:08;22.75;;;10.82;;
43809;SDS011;29440;48.208;11.162;2022-12-17T03:45:54;22.08;;;10.85;;
43809;SDS011;29440;48.208;11.162;2022-12-17T03:48:38;22.27;;;11.50;;
43809;SDS011;29440;48.208;11.162;2022-12-17T03:51:23;23.00;;;10.27;;
43809;SDS011;29440;48.208;11.162;2022-12-17T03:54:07;24.00;;;10.90;;
43809;SDS011;29440;48.208;11.162;2022-12-17T03:56:51;25.20;;;11.15;;
43809;SDS011;29440;48.208;11.162;2022-12-17T03:59:36;23.15;;;10.65;;
43809;SDS011;29440;48.208;11.162;2022-12-17T04:02:20;22.60;;;11.38;;
43809;SDS011;29440;48.208;11.162;2022-12-17T04:05:05;20.55;;;10.10;;
43809;SDS011;29440;48.208;11.162;2022-12-17T04:07:50;21.48;;;10.57;;
43809;SDS011;29440;48.208;11.162;2022-12-17T04:10:34;19.20;;;9.73;;
43809;SDS011;29440;48.208;11.162;2022-12-17T04:13:18;26.08;;;10.55;;
43809;SDS011;29440;48.208;11.162;2022-12-17T04:16:02;22.83;;;10.93;;
43809;SDS011;29440;48.208;11.162;2022-12-17T04:18:47;24.58;;;11.70;;
43809;SDS011;29440;48.208;11.162;2022-12-17T04:21:31;26.25;;;10.27;;
43809;SDS011;29440;48.208;11.162;2022-12-17T04:24:15;19.65;;;10.80;;
43809;SDS011;29440;48.208;11.162;2022-12-17T04:27:00;21.60;;;10.15;;
43809;SDS011;29440;48.208;11.162;2022-12-17T04:29:44;28.33;;;11.07;;
43809;SDS011;29440;48.208;11.162;2022-12-17T04:32:29;27.50;;;11.00;;
43809;SDS011;29440;48.208;11.162;2022-12-17T04:35:13;20.33;;;10.45;;
43809;SDS011;29440;48.208;11.162;2022-12-17T04:37:57;22.17;;;10.95;;
43809;SDS011;29440;48.208;11.162;2022-12-17T04:40:42;24.08;;;11.52;;
43809;SDS011;29440;48.208;11.162;2022-12-17T04:43:27;24.23;;;10.38;;
43809;SDS011;29440;48.208;11.162;2022-12-17T04:46:11;27.60;;;10.75;;
43809;SDS011;29440;48.208;11.162;2022-12-17T04:48:55;22.15;;;10.80;;
43809;SDS011;29440;48.208;11.162;2022-12-17T04:51:39;22.30;;;10.30;;
43809;SDS011;29440;48.208;11.162;2022-12-17T04:54:24;21.73;;;11.02;;
43809;SDS011;29440;48.208;11.162;2022-12-17T04:57:08;24.50;;;11.23;;
43809;SDS011;29440;48.208;11.162;2022-12-17T04:59:52;21.23;;;10.05;;
43809;SDS011;29440;48.208;11.162;2022-12-17T05:02:36;26.73;;;10.85;;
43809;SDS011;29440;48.208;11.162;2022-12-17T05:08:05;22.17;;;10.45;;
43809;SDS011;29440;48.208;11.162;2022-12-17T05:10:49;27.27;;;10.50;;
43809;SDS011;29440;48.208;11.162;2022-12-17T05:13:33;25.75;;;11.25;;
43809;SDS011;29440;48.208;11.162;2022-12-17T05:16:17;23.88;;;11.05;;
43809;SDS011;29440;48.208;11.162;2022-12-17T05:19:01;21.35;;;9.75;;
43809;SDS011;29440;48.208;11.162;2022-12-17T05:21:46;21.08;;;10.48;;
43809;SDS011;29440;48.208;11.162;2022-12-17T05:24:31;24.77;;;10.45;;
43809;SDS011;29440;48.208;11.162;2022-12-17T05:27:15;22.83;;;11.60;;
43809;SDS011;29440;48.208;11.162;2022-12-17T05:29:59;28.30;;;11.90;;
43809;SDS011;29440;48.208;11.162;2022-12-17T05:32:44;26.80;;;10.40;;
43809;SDS011;29440;48.208;11.162;2022-12-17T05:35:28;24.52;;;11.20;;
43809;SDS011;29440;48.208;11.162;2022-12-17T05:38:12;27.17;;;12.70;;
43809;SDS011;29440;48.208;11.162;2022-12-17T05:40:57;23.17;;;11.50;;
43809;SDS011;29440;48.208;11.162;2022-12-17T05:43:43;23.80;;;10.38;;
43809;SDS011;29440;48.208;11.162;2022-12-17T05:46:28;22.20;;;10.85;;
43809;SDS011;29440;48.208;11.162;2022-12-17T05:49:13;19.73;;;9.82;;
43809;SDS011;29440;48.208;11.162;2022-12-17T05:51:58;21.80;;;10.05;;
43809;SDS011;29440;48.208;11.162;2022-12-17T05:54:42;20.15;;;9.50;;
43809;SDS011;29440;48.208;11.162;2022-12-17T05:57:26;15.57;;;8.10;;
43809;SDS011;29440;48.208;11.162;2022-12-17T06:00:10;21.58;;;10.32;;
43809;SDS011;29440;48.208;11.162;2022-12-17T06:02:56;21.27;;;10.30;;
43809;SDS011;29440;48.208;11.162;2022-12-17T06:05:44;23.42;;;9.63;;
43809;SDS011;29440;48.208;11.162;2022-12-17T06:08:28;23.25;;;9.57;;
43809;SDS011;29440;48.208;11.162;2022-12-17T06:13:57;22.83;;;10.00;;
43809;SDS011;29440;48.208;11.162;2022-12-17T06:16:41;17.00;;;9.00;;
43809;SDS011;29440;48.208;11.162;2022-12-17T06:19:25;24.90;;;10.57;;
43809;SDS011;29440;48.208;11.162;2022-12-17T06:22:23;20.35;;;9.18;;
43809;SDS011;29440;48.208;11.162;2022-12-17T06:28:00;19.95;;;8.93;;
43809;SDS011;29440;48.208;11.162;2022-12-17T06:30:49;22.87;;;11.00;;
43809;SDS011;29440;48.208;11.162;2022-12-17T06:33:35;22.88;;;9.88;;
43809;SDS011;29440;48.208;11.162;2022-12-17T06:36:19;26.80;;;10.95;;
43809;SDS011;29440;48.208;11.162;2022-12-17T06:39:03;19.25;;;10.38;;
43809;SDS011;29440;48.208;11.162;2022-12-17T06:41:47;27.42;;;11.80;;
43809;SDS011;29440;48.208;11.162;2022-12-17T06:44:31;21.35;;;9.88;;
43809;SDS011;29440;48.208;11.162;2022-12-17T06:47:16;21.55;;;10.20;;
43809;SDS011;29440;48.208;11.162;2022-12-17T06:50:00;24.73;;;10.88;;
43809;SDS011;29440;48.208;11.162;2022-12-17T06:52:44;21.08;;;10.38;;
43809;SDS011;29440;48.208;11.162;2022-12-17T07:01:08;25.88;;;9.77;;
43809;SDS011;29440;48.208;11.162;2022-12-17T07:03:52;23.55;;;10.35;;
43809;SDS011;29440;48.208;11.162;2022-12-17T07:06:37;19.02;;;9.48;;
43809;SDS011;29440;48.208;11.162;2022-12-17T07:09:21;17.70;;;9.63;;
43809;SDS011;29440;48.208;11.162;2022-12-17T07:12:05;20.85;;;9.10;;
43809;SDS011;29440;48.208;11.162;2022-12-17T07:14:49;18.98;;;9.00;;
43809;SDS011;29440;48.208;11.162;2022-12-17T07:17:33;23.13;;;9.57;;
43809;SDS011;29440;48.208;11.162;2022-12-17T07:20:17;19.40;;;9.57;;
43809;SDS011;29440;48.208;11.162;2022-12-17T07:23:02;18.30;;;9.38;;
43809;SDS011;29440;48.208;11.162;2022-12-17T07:28:30;16.43;;;8.33;;
43809;SDS011;29440;48.208;11.162;2022-12-17T07:31:14;25.92;;;10.52;;
43809;SDS011;29440;48.208;11.162;2022-12-17T07:33:58;19.08;;;9.57;;
43809;SDS011;29440;48.208;11.162;2022-12-17T07:36:42;21.40;;;10.98;;
43809;SDS011;29440;48.208;11.162;2022-12-17T07:42:11;20.63;;;9.70;;
43809;SDS011;29440;48.208;11.162;2022-12-17T07:47:39;23.38;;;9.05;;
43809;SDS011;29440;48.208;11.162;2022-12-17T07:50:24;18.95;;;9.15;;
43809;SDS011;29440;48.208;11.162;2022-12-17T07:53:08;22.70;;;9.93;;
43809;SDS011;29440;48.208;11.162;2022-12-17T07:55:52;19.85;;;7.85;;
43809;SDS011;29440;48.208;11.162;2022-12-17T07:58:36;20.35;;;9.82;;
43809;SDS011;29440;48.208;11.162;2022-12-17T08:01:21;19.13;;;8.93;;
43809;SDS011;29440;48.208;11.162;2022-12-17T08:04:05;19.67;;;9.98;;
43809;SDS011;29440;48.208;11.162;2022-12-17T08:06:50;22.63;;;10.13;;
43809;SDS011;29440;48.208;11.162;2022-12-17T08:09:34;23.35;;;10.45;;
43809;SDS011;29440;48.208;11.162;2022-12-17T08:15:03;24.35;;;10.38;;
43809;SDS011;29440;48.208;11.162;2022-12-17T08:17:47;21.30;;;9.65;;
43809;SDS011;29440;48.208;11.162;2022-12-17T08:20:32;25.17;;;10.77;;
43809;SDS011;29440;48.208;11.162;2022-12-17T08:23:17;28.17;;;9.88;;
43809;SDS011;29440;48.208;11.162;2022-12-17T08:26:01;20.23;;;11.45;;
43809;SDS011;29440;48.208;11.162;2022-12-17T08:31:30;25.40;;;12.93;;
43809;SDS011;29440;48.208;11.162;2022-12-17T08:34:15;26.00;;;13.15;;
43809;SDS011;29440;48.208;11.162;2022-12-17T08:36:59;21.00;;;10.60;;
43809;SDS011;29440;48.208;11.162;2022-12-17T08:39:43;17.05;;;9.00;;
43809;SDS011;29440;48.208;11.162;2022-12-17T08:42:27;20.63;;;10.30;;
43809;SDS011;29440;48.208;11.162;2022-12-17T08:45:11;21.27;;;9.23;;
43809;SDS011;29440;48.208;11.162;2022-12-17T08:48:05;17.65;;;9.00;;
43809;SDS011;29440;48.208;11.162;2022-12-17T08:51:07;16.58;;;9.15;;
43809;SDS011;29440;48.208;11.162;2022-12-17T08:53:51;22.92;;;10.27;;
43809;SDS011;29440;48.208;11.162;2022-12-17T08:56:35;21.70;;;9.65;;
43809;SDS011;29440;48.208;11.162;2022-12-17T08:59:19;18.63;;;9.40;;
43809;SDS011;29440;48.208;11.162;2022-12-17T09:02:07;20.48;;;11.02;;
43809;SDS011;29440;48.208;11.162;2022-12-17T09:04:51;23.67;;;12.38;;
43809;SDS011;29440;48.208;11.162;2022-12-17T09:07:36;21.10;;;10.98;;
43809;SDS011;29440;48.208;11.162;2022-12-17T09:10:27;21.48;;;11.73;;
43809;SDS011;29440;48.208;11.162;2022-12-17T09:15:56;26.98;;;11.63;;
43809;SDS011;29440;48.208;11.162;2022-12-17T09:18:41;22.40;;;11.57;;
43809;SDS011;29440;48.208;11.162;2022-12-17T09:21:29;20.27;;;10.32;;
43809;SDS011;29440;48.208;11.162;2022-12-17T09:24:14;21.58;;;10.25;;
43809;SDS011;29440;48.208;11.162;2022-12-17T09:26:58;19.20;;;9.82;;
43809;SDS011;29440;48.208;11.162;2022-12-17T09:29:42;19.15;;;10.05;;
43809;SDS011;29440;48.208;11.162;2022-12-17T09:32:26;21.35;;;10.57;;
43809;SDS011;29440;48.208;11.162;2022-12-17T09:35:11;21.83;;;11.48;;
43809;SDS011;29440;48.208;11.162;2022-12-17T09:37:56;20.63;;;12.15;;
43809;SDS011;29440;48.208;11.162;2022-12-17T09:40:40;32.50;;;19.38;;
43809;SDS011;29440;48.208;11.162;2022-12-17T09:46:51;21.60;;;11.70;;
43809;SDS011;29440;48.208;11.162;2022-12-17T09:49:44;24.95;;;11.48;;
43809;SDS011;29440;48.208;11.162;2022-12-17T09:52:30;26.55;;;13.43;;
43809;SDS011;29440;48.208;11.162;2022-12-17T09:55:19;23.08;;;12.10;;
43809;SDS011;29440;48.208;11.162;2022-12-17T09:58:04;25.20;;;12.55;;
43809;SDS011;29440;48.208;11.162;2022-12-17T10:00:49;22.77;;;12.77;;
43809;SDS011;29440;48.208;11.162;2022-12-17T10:03:36;23.15;;;12.82;;
43809;SDS011;29440;48.208;11.162;2022-12-17T10:06:23;23.95;;;13.43;;
43809;SDS011;29440;48.208;11.162;2022-12-17T10:12:07;26.10;;;13.32;;
43809;SDS011;29440;48.208;11.162;2022-12-17T10:14:54;30.60;;;14.07;;
43809;SDS011;29440;48.208;11.162;2022-12-17T10:17:38;26.52;;;13.32;;
43809;SDS011;29440;48.208;11.162;2022-12-17T10:20:24;25.23;;;13.13;;
43809;SDS011;29440;48.208;11.162;2022-12-17T10:23:33;25.92;;;12.88;;
43809;SDS011;29440;48.208;11.162;2022-12-17T10:26:22;25.15;;;12.52;;
43809;SDS011;29440;48.208;11.162;2022-12-17T10:29:09;24.58;;;12.32;;
43809;SDS011;29440;48.208;11.162;2022-12-17T10:34:58;26.42;;;12.25;;
43809;SDS011;29440;48.208;11.162;2022-12-17T10:41:41;19.60;;;10.23;;
43809;SDS011;29440;48.208;11.162;2022-12-17T10:44:39;25.38;;;13.63;;
43809;SDS011;29440;48.208;11.162;2022-12-17T10:47:26;24.50;;;12.02;;
43809;SDS011;29440;48.208;11.162;2022-12-17T10:52:55;26.20;;;11.50;;
43809;SDS011;29440;48.208;11.162;2022-12-17T10:55:46;21.02;;;11.38;;
43809;SDS011;29440;48.208;11.162;2022-12-17T10:58:32;24.00;;;11.93;;
43809;SDS011;29440;48.208;11.162;2022-12-17T11:01:21;23.50;;;11.25;;
43809;SDS011;29440;48.208;11.162;2022-12-17T11:04:20;19.40;;;11.00;;
43809;SDS011;29440;48.208;11.162;2022-12-17T11:07:05;22.58;;;10.77;;
43809;SDS011;29440;48.208;11.162;2022-12-17T11:09:52;17.90;;;10.00;;
43809;SDS011;29440;48.208;11.162;2022-12-17T11:12:49;19.42;;;10.25;;
43809;SDS011;29440;48.208;11.162;2022-12-17T11:15:38;22.83;;;11.05;;
43809;SDS011;29440;48.208;11.162;2022-12-17T11:18:31;19.73;;;10.27;;
43809;SDS011;29440;48.208;11.162;2022-12-17T11:24:54;25.55;;;10.80;;
43809;SDS011;29440;48.208;11.162;2022-12-17T11:27:43;26.42;;;11.38;;
43809;SDS011;29440;48.208;11.162;2022-12-17T11:30:30;22.23;;;10.88;;
43809;SDS011;29440;48.208;11.162;2022-12-17T11:33:24;25.80;;;10.90;;
43809;SDS011;29440;48.208;11.162;2022-12-17T11:36:23;27.92;;;11.88;;
43809;SDS011;29440;48.208;11.162;2022-12-17T11:42:17;24.88;;;11.57;;
43809;SDS011;29440;48.208;11.162;2022-12-17T11:48:47;22.88;;;11.52;;
43809;SDS011;29440;48.208;11.162;2022-12-17T11:52:00;22.77;;;10.70;;
43809;SDS011;29440;48.208;11.162;2022-12-17T11:55:08;23.05;;;10.95;;
43809;SDS011;29440;48.208;11.162;2022-12-17T11:58:17;28.33;;;12.75;;
43809;SDS011;29440;48.208;11.162;2022-12-17T12:01:23;25.95;;;12.23;;
43809;SDS011;29440;48.208;11.162;2022-12-17T12:13:26;27.92;;;14.15;;
43809;SDS011;29440;48.208;11.162;2022-12-17T12:25:37;30.15;;;14.55;;
43809;SDS011;29440;48.208;11.162;2022-12-17T12:28:34;30.10;;;13.60;;
43809;SDS011;29440;48.208;11.162;2022-12-17T12:34:42;41.55;;;17.20;;
43809;SDS011;29440;48.208;11.162;2022-12-17T12:43:42;31.23;;;15.60;;
43809;SDS011;29440;48.208;11.162;2022-12-17T12:46:47;40.38;;;17.52;;
43809;SDS011;29440;48.208;11.162;2022-12-17T12:49:54;39.42;;;17.27;;
43809;SDS011;29440;48.208;11.162;2022-12-17T12:52:52;34.30;;;16.13;;
43809;SDS011;29440;48.208;11.162;2022-12-17T12:55:37;40.05;;;15.95;;
43809;SDS011;29440;48.208;11.162;2022-12-17T12:58:24;38.75;;;19.05;;
43809;SDS011;29440;48.208;11.162;2022-12-17T13:01:15;32.20;;;17.23;;
43809;SDS011;29440;48.208;11.162;2022-12-17T13:04:01;33.83;;;17.52;;
43809;SDS011;29440;48.208;11.162;2022-12-17T13:07:25;33.92;;;16.60;;
43809;SDS011;29440;48.208;11.162;2022-12-17T13:09:53;33.08;;;15.82;;
43809;SDS011;29440;48.208;11.162;2022-12-17T13:12:24;33.55;;;16.17;;
43809;SDS011;29440;48.208;11.162;2022-12-17T13:17:38;36.47;;;17.92;;
43809;SDS011;29440;48.208;11.162;2022-12-17T13:20:28;34.30;;;16.80;;
43809;SDS011;29440;48.208;11.162;2022-12-17T13:23:12;34.13;;;16.30;;
43809;SDS011;29440;48.208;11.162;2022-12-17T13:25:40;32.67;;;15.27;;
43809;SDS011;29440;48.208;11.162;2022-12-17T13:28:28;36.55;;;17.77;;
43809;SDS011;29440;48.208;11.162;2022-12-17T13:31:01;40.92;;;16.98;;
43809;SDS011;29440;48.208;11.162;2022-12-17T13:33:42;40.22;;;17.13;;
43809;SDS011;29440;48.208;11.162;2022-12-17T13:41:27;28.58;;;15.15;;
43809;SDS011;29440;48.208;11.162;2022-12-17T13:46:44;36.33;;;16.83;;
43809;SDS011;29440;48.208;11.162;2022-12-17T13:51:47;29.25;;;14.30;;
43809;SDS011;29440;48.208;11.162;2022-12-17T13:54:23;25.75;;;12.27;;
43809;SDS011;29440;48.208;11.162;2022-12-17T13:56:49;31.17;;;11.13;;
43809;SDS011;29440;48.208;11.162;2022-12-17T13:59:16;26.80;;;12.45;;
43809;SDS011;29440;48.208;11.162;2022-12-17T14:01:49;27.47;;;11.10;;
43809;SDS011;29440;48.208;11.162;2022-12-17T14:04:20;22.75;;;10.02;;
43809;SDS011;29440;48.208;11.162;2022-12-17T14:06:50;30.38;;;12.82;;
43809;SDS011;29440;48.208;11.162;2022-12-17T14:09:19;35.25;;;14.93;;
43809;SDS011;29440;48.208;11.162;2022-12-17T14:11:46;43.13;;;17.65;;
43809;SDS011;29440;48.208;11.162;2022-12-17T14:14:33;39.22;;;16.85;;
43809;SDS011;29440;48.208;11.162;2022-12-17T14:17:03;37.33;;;15.32;;
43809;SDS011;29440;48.208;11.162;2022-12-17T14:19:29;41.67;;;17.65;;
43809;SDS011;29440;48.208;11.162;2022-12-17T14:21:56;37.00;;;14.70;;
43809;SDS011;29440;48.208;11.162;2022-12-17T14:24:22;27.38;;;14.38;;
43809;SDS011;29440;48.208;11.162;2022-12-17T14:26:55;34.88;;;15.75;;
43809;SDS011;29440;48.208;11.162;2022-12-17T14:29:28;32.08;;;15.10;;
43809;SDS011;29440;48.208;11.162;2022-12-17T14:31:56;34.70;;;15.38;;
43809;SDS011;29440;48.208;11.162;2022-12-17T14:34:23;33.22;;;15.93;;
43809;SDS011;29440;48.208;11.162;2022-12-17T14:36:53;32.22;;;15.77;;
43809;SDS011;29440;48.208;11.162;2022-12-17T14:41:50;33.13;;;15.38;;
43809;SDS011;29440;48.208;11.162;2022-12-17T14:44:47;36.33;;;15.90;;
43809;SDS011;29440;48.208;11.162;2022-12-17T14:47:35;42.30;;;18.17;;
43809;SDS011;29440;48.208;11.162;2022-12-17T14:50:04;38.83;;;17.15;;
43809;SDS011;29440;48.208;11.162;2022-12-17T14:55:01;40.38;;;17.75;;
43809;SDS011;29440;48.208;11.162;2022-12-17T14:57:45;37.88;;;18.35;;
43809;SDS011;29440;48.208;11.162;2022-12-17T15:00:11;45.70;;;19.15;;
43809;SDS011;29440;48.208;11.162;2022-12-17T15:02:37;43.05;;;18.85;;
43809;SDS011;29440;48.208;11.162;2022-12-17T15:05:03;42.67;;;19.40;;
43809;SDS011;29440;48.208;11.162;2022-12-17T15:07:29;39.90;;;19.40;;
43809;SDS011;29440;48.208;11.162;2022-12-17T15:09:56;42.80;;;18.45;;
43809;SDS011;29440;48.208;11.162;2022-12-17T15:12:22;46.03;;;18.98;;
43809;SDS011;29440;48.208;11.162;2022-12-17T15:14:49;44.00;;;18.85;;
43809;SDS011;29440;48.208;11.162;2022-12-17T15:17:15;44.67;;;18.77;;
43809;SDS011;29440;48.208;11.162;2022-12-17T15:19:41;38.95;;;18.13;;
43809;SDS011;29440;48.208;11.162;2022-12-17T15:22:14;37.30;;;16.42;;
43809;SDS011;29440;48.208;11.162;2022-12-17T15:24:40;39.10;;;17.02;;
43809;SDS011;29440;48.208;11.162;2022-12-17T15:27:09;35.08;;;16.25;;
43809;SDS011;29440;48.208;11.162;2022-12-17T15:29:37;42.30;;;16.88;;
43809;SDS011;29440;48.208;11.162;2022-12-17T15:32:02;39.95;;;16.90;;
43809;SDS011;29440;48.208;11.162;2022-12-17T15:34:28;33.88;;;16.25;;
43809;SDS011;29440;48.208;11.162;2022-12-17T15:36:54;40.78;;;16.33;;
43809;SDS011;29440;48.208;11.162;2022-12-17T15:39:19;35.45;;;15.55;;
43809;SDS011;29440;48.208;11.162;2022-12-17T15:41:57;31.52;;;13.95;;
43809;SDS011;29440;48.208;11.162;2022-12-17T15:44:41;30.17;;;13.80;;
43809;SDS011;29440;48.208;11.162;2022-12-17T15:47:07;29.88;;;14.13;;
43809;SDS011;29440;48.208;11.162;2022-12-17T15:49:32;30.83;;;13.80;;
43809;SDS011;29440;48.208;11.162;2022-12-17T15:51:58;30.35;;;12.63;;
43809;SDS011;29440;48.208;11.162;2022-12-17T15:54:23;29.05;;;13.38;;
43809;SDS011;29440;48.208;11.162;2022-12-17T15:56:53;30.25;;;13.60;;
43809;SDS011;29440;48.208;11.162;2022-12-17T15:59:19;31.25;;;12.68;;
43809;SDS011;29440;48.208;11.162;2022-12-17T16:01:44;23.92;;;13.25;;
43809;SDS011;29440;48.208;11.162;2022-12-17T16:04:10;37.22;;;15.30;;
43809;SDS011;29440;48.208;11.162;2022-12-17T16:06:35;29.48;;;14.27;;
43809;SDS011;29440;48.208;11.162;2022-12-17T16:09:01;30.73;;;14.75;;
43809;SDS011;29440;48.208;11.162;2022-12-17T16:11:27;53.17;;;24.13;;
43809;SDS011;29440;48.208;11.162;2022-12-17T16:13:53;53.17;;;21.13;;
43809;SDS011;29440;48.208;11.162;2022-12-17T16:16:19;34.28;;;15.65;;
43809;SDS011;29440;48.208;11.162;2022-12-17T16:18:45;34.33;;;12.90;;
43809;SDS011;29440;48.208;11.162;2022-12-17T16:21:11;31.23;;;14.40;;
43809;SDS011;29440;48.208;11.162;2022-12-17T16:23:37;33.38;;;14.52;;
43809;SDS011;29440;48.208;11.162;2022-12-17T16:26:06;33.40;;;14.05;;
43809;SDS011;29440;48.208;11.162;2022-12-17T16:28:33;32.80;;;14.40;;
43809;SDS011;29440;48.208;11.162;2022-12-17T16:31:06;36.83;;;14.18;;
43809;SDS011;29440;48.208;11.162;2022-12-17T16:33:35;36.08;;;14.35;;
43809;SDS011;29440;48.208;11.162;2022-12-17T16:36:05;33.63;;;13.73;;
43809;SDS011;29440;48.208;11.162;2022-12-17T16:38:31;34.08;;;13.95;;
43809;SDS011;29440;48.208;11.162;2022-12-17T16:40:58;34.40;;;14.85;;
43809;SDS011;29440;48.208;11.162;2022-12-17T16:43:26;34.65;;;14.20;;
43809;SDS011;29440;48.208;11.162;2022-12-17T16:45:53;39.08;;;15.50;;
43809;SDS011;29440;48.208;11.162;2022-12-17T16:48:19;45.92;;;17.00;;
43809;SDS011;29440;48.208;11.162;2022-12-17T16:50:46;37.17;;;15.95;;
43809;SDS011;29440;48.208;11.162;2022-12-17T16:53:12;31.10;;;13.68;;
43809;SDS011;29440;48.208;11.162;2022-12-17T16:55:39;31.75;;;14.05;;
43809;SDS011;29440;48.208;11.162;2022-12-17T16:58:06;31.75;;;12.70;;
43809;SDS011;29440;48.208;11.162;2022-12-17T17:00:32;34.53;;;13.93;;
43809;SDS011;29440;48.208;11.162;2022-12-17T17:02:59;23.55;;;11.82;;
43809;SDS011;29440;48.208;11.162;2022-12-17T17:05:25;30.83;;;13.50;;
43809;SDS011;29440;48.208;11.162;2022-12-17T17:07:50;27.15;;;12.35;;
43809;SDS011;29440;48.208;11.162;2022-12-17T17:10:16;26.05;;;11.15;;
43809;SDS011;29440;48.208;11.162;2022-12-17T17:12:41;31.20;;;12.90;;
43809;SDS011;29440;48.208;11.162;2022-12-17T17:15:07;27.02;;;11.95;;
43809;SDS011;29440;48.208;11.162;2022-12-17T17:17:39;24.65;;;11.65;;
43809;SDS011;29440;48.208;11.162;2022-12-17T17:20:05;24.20;;;11.60;;
43809;SDS011;29440;48.208;11.162;2022-12-17T17:22:34;25.30;;;10.93;;
43809;SDS011;29440;48.208;11.162;2022-12-17T17:24:59;45.88;;;16.45;;
43809;SDS011;29440;48.208;11.162;2022-12-17T17:27:25;43.72;;;17.95;;
43809;SDS011;29440;48.208;11.162;2022-12-17T17:29:50;51.15;;;19.50;;
43809;SDS011;29440;48.208;11.162;2022-12-17T17:32:16;50.35;;;18.85;;
43809;SDS011;29440;48.208;11.162;2022-12-17T17:34:42;39.47;;;17.20;;
43809;SDS011;29440;48.208;11.162;2022-12-17T17:37:07;30.83;;;14.95;;